createdAt,value
2022-12-16T00:00:30.898Z,-2.66
2022-12-16T00:03:00.481Z,-2.68
2022-12-16T00:05:28.153Z,-2.69
2022-12-16T00:07:55.406Z,-2.67
2022-12-16T00:10:23.022Z,-2.69
2022-12-16T00:12:49.380Z,-2.69
2022-12-16T00:15:18.345Z,-2.73
2022-12-16T00:17:44.740Z,-2.73
2022-12-16T00:20:11.706Z,-2.73
2022-12-16T00:22:38.077Z,-2.75
2022-12-16T00:25:05.235Z,-2.75
2022-12-16T00:27:34.879Z,-2.78
2022-12-16T00:30:09.698Z,-2.75
2022-12-16T00:32:38.402Z,-2.78
2022-12-16T00:35:05.044Z,-2.79
2022-12-16T00:37:31.461Z,-2.80
2022-12-16T00:39:57.991Z,-2.82
2022-12-16T00:42:26.691Z,-2.82
2022-12-16T00:44:53.092Z,-2.84
2022-12-16T00:47:21.232Z,-2.86
2022-12-16T00:49:47.637Z,-2.88
2022-12-16T00:52:14.043Z,-2.90
2022-12-16T00:54:40.546Z,-2.88
2022-12-16T00:57:06.972Z,-2.88
2022-12-16T00:59:33.485Z,-2.90
2022-12-16T01:02:00.222Z,-2.92
2022-12-16T01:04:26.930Z,-2.95
2022-12-16T01:06:54.543Z,-2.92
2022-12-16T01:09:22.165Z,-2.94
2022-12-16T01:11:48.665Z,-2.96
2022-12-16T01:14:15.154Z,-2.97
2022-12-16T01:16:41.743Z,-3.03
2022-12-16T01:19:13.642Z,-3.07
2022-12-16T01:21:40.292Z,-3.04
2022-12-16T01:24:09.556Z,-3.03
2022-12-16T01:26:35.996Z,-3.05
2022-12-16T01:29:02.572Z,-3.02
2022-12-16T01:31:29.170Z,-3.06
2022-12-16T01:33:58.243Z,-3.05
2022-12-16T01:36:24.629Z,-3.03
2022-12-16T01:38:51.158Z,-3.03
2022-12-16T01:41:20.946Z,-3.11
2022-12-16T01:43:47.681Z,-3.09
2022-12-16T01:46:18.464Z,-3.10
2022-12-16T01:48:47.551Z,-3.10
2022-12-16T01:51:21.608Z,-3.12
2022-12-16T01:53:50.430Z,-3.14
2022-12-16T01:56:19.653Z,-3.16
2022-12-16T01:58:47.008Z,-3.16
2022-12-16T02:01:17.072Z,-3.17
2022-12-16T02:03:44.348Z,-3.21
2022-12-16T02:06:10.888Z,-3.23
2022-12-16T02:08:39.886Z,-3.24
2022-12-16T02:11:25.231Z,-3.25
2022-12-16T02:14:09.930Z,-3.28
2022-12-16T02:16:57.601Z,-3.32
2022-12-16T02:19:43.352Z,-3.32
2022-12-16T02:22:12.570Z,-3.35
2022-12-16T02:25:19.687Z,-3.41
2022-12-16T02:27:55.805Z,-3.43
2022-12-16T02:30:47.706Z,-3.49
2022-12-16T02:33:29.703Z,-3.54
2022-12-16T02:36:11.902Z,-3.59
2022-12-16T02:38:59.201Z,-3.59
2022-12-16T02:41:59.321Z,-3.61
2022-12-16T02:44:35.825Z,-3.60
2022-12-16T02:47:02.782Z,-3.70
2022-12-16T02:49:29.104Z,-3.71
2022-12-16T02:51:59.046Z,-3.75
2022-12-16T02:54:30.751Z,-3.79
2022-12-16T02:57:16.132Z,-3.83
2022-12-16T02:59:55.335Z,-3.85
2022-12-16T03:02:55.491Z,-3.86
2022-12-16T03:05:34.252Z,-3.92
2022-12-16T03:08:05.878Z,-3.97
2022-12-16T03:10:40.076Z,-4.02
2022-12-16T03:13:09.690Z,-4.03
2022-12-16T03:15:36.560Z,-4.06
2022-12-16T03:18:05.992Z,-4.11
2022-12-16T03:20:47.124Z,-4.15
2022-12-16T03:23:22.012Z,-4.17
2022-12-16T03:25:53.033Z,-4.19
2022-12-16T03:28:49.546Z,-4.22
2022-12-16T03:31:38.626Z,-4.28
2022-12-16T03:34:07.135Z,-4.32
2022-12-16T03:36:36.921Z,-4.35
2022-12-16T03:39:05.715Z,-4.41
2022-12-16T03:41:35.620Z,-4.45
2022-12-16T03:44:02.483Z,-4.41
2022-12-16T03:46:28.928Z,-4.41
2022-12-16T03:48:55.501Z,-4.48
2022-12-16T03:51:21.859Z,-4.56
2022-12-16T03:53:48.455Z,-4.65
2022-12-16T03:56:14.941Z,-4.68
2022-12-16T03:58:41.449Z,-4.67
2022-12-16T04:01:09.722Z,-4.76
2022-12-16T04:03:37.963Z,-4.87
2022-12-16T04:06:05.290Z,-4.90
2022-12-16T04:08:34.214Z,-4.87
2022-12-16T04:11:19.451Z,-4.91
2022-12-16T04:14:06.513Z,-4.96
2022-12-16T04:16:51.548Z,-5.00
2022-12-16T04:19:47.353Z,-4.96
2022-12-16T04:22:36.935Z,-5.01
2022-12-16T04:25:20.857Z,-5.09
2022-12-16T04:27:47.360Z,-5.10
2022-12-16T04:30:22.025Z,-5.09
2022-12-16T04:33:14.621Z,-5.14
2022-12-16T04:35:59.681Z,-5.17
2022-12-16T04:38:44.747Z,-5.19
2022-12-16T04:41:30.506Z,-5.18
2022-12-16T04:44:15.773Z,-5.19
2022-12-16T04:47:01.029Z,-5.18
2022-12-16T04:49:46.039Z,-5.27
2022-12-16T04:52:34.071Z,-5.29
2022-12-16T04:55:19.523Z,-5.36
2022-12-16T04:58:23.238Z,-5.39
2022-12-16T05:01:08.591Z,-5.40
2022-12-16T05:03:54.818Z,-5.36
2022-12-16T05:06:40.102Z,-5.41
2022-12-16T05:09:25.833Z,-5.44
2022-12-16T05:12:11.715Z,-5.40
2022-12-16T05:14:59.699Z,-5.42
2022-12-16T05:17:47.392Z,-5.43
2022-12-16T05:20:34.808Z,-5.52
2022-12-16T05:23:19.666Z,-5.49
2022-12-16T05:26:04.626Z,-5.49
2022-12-16T05:28:49.682Z,-5.55
2022-12-16T05:31:34.965Z,-5.65
2022-12-16T05:34:20.431Z,-5.69
2022-12-16T05:37:05.345Z,-5.71
2022-12-16T05:39:50.661Z,-5.73
2022-12-16T05:42:37.046Z,-5.75
2022-12-16T05:45:22.215Z,-5.72
2022-12-16T05:48:10.474Z,-5.80
2022-12-16T05:50:58.006Z,-5.83
2022-12-16T05:53:43.096Z,-5.82
2022-12-16T05:56:30.940Z,-5.84
2022-12-16T05:59:16.236Z,-5.90
2022-12-16T06:02:01.348Z,-5.89
2022-12-16T06:04:46.387Z,-6.02
2022-12-16T06:07:31.394Z,-6.10
2022-12-16T06:10:16.335Z,-6.19
2022-12-16T06:13:05.410Z,-6.25
2022-12-16T06:15:51.029Z,-6.26
2022-12-16T06:18:36.430Z,-6.25
2022-12-16T06:21:23.907Z,-6.24
2022-12-16T06:24:09.066Z,-6.32
2022-12-16T06:26:54.245Z,-6.19
2022-12-16T06:29:39.308Z,-6.35
2022-12-16T06:32:24.525Z,-6.37
2022-12-16T06:35:09.594Z,-6.32
2022-12-16T06:37:54.489Z,-6.48
2022-12-16T06:40:39.456Z,-6.27
2022-12-16T06:43:24.764Z,-6.20
2022-12-16T06:46:12.452Z,-6.13
2022-12-16T06:48:57.303Z,-6.27
2022-12-16T06:51:42.353Z,-6.18
2022-12-16T06:54:27.431Z,-6.23
2022-12-16T06:57:12.652Z,-6.26
2022-12-16T06:59:57.502Z,-6.24
2022-12-16T07:02:44.343Z,-6.25
2022-12-16T07:05:29.541Z,-6.20
2022-12-16T07:08:14.303Z,-6.22
2022-12-16T07:11:13.897Z,-6.34
2022-12-16T07:14:01.259Z,-6.24
2022-12-16T07:16:46.532Z,-6.30
2022-12-16T07:19:31.322Z,-6.38
2022-12-16T07:22:16.237Z,-6.30
2022-12-16T07:25:01.116Z,-6.31
2022-12-16T07:27:46.242Z,-6.31
2022-12-16T07:30:31.381Z,-6.25
2022-12-16T07:33:18.898Z,-6.16
2022-12-16T07:36:03.979Z,-6.16
2022-12-16T07:38:49.181Z,-6.24
2022-12-16T07:41:34.331Z,-6.19
2022-12-16T07:44:19.189Z,-6.19
2022-12-16T07:47:04.129Z,-6.30
2022-12-16T07:49:49.365Z,-6.30
2022-12-16T07:52:34.425Z,-6.20
2022-12-16T07:55:19.421Z,-6.28
2022-12-16T07:58:19.715Z,-6.32
2022-12-16T08:01:09.144Z,-6.33
2022-12-16T08:03:54.612Z,-6.23
2022-12-16T08:06:41.550Z,-6.17
2022-12-16T08:09:26.664Z,-6.26
2022-12-16T08:12:11.932Z,-6.14
2022-12-16T08:14:56.688Z,-6.09
2022-12-16T08:17:42.007Z,-5.95
2022-12-16T08:20:27.638Z,-5.93
2022-12-16T08:23:12.535Z,-5.93
2022-12-16T08:26:01.369Z,-5.96
2022-12-16T08:28:46.257Z,-5.88
2022-12-16T08:31:31.397Z,-5.82
2022-12-16T08:34:16.499Z,-5.74
2022-12-16T08:37:05.978Z,-5.68
2022-12-16T08:40:10.619Z,-5.64
2022-12-16T08:42:56.170Z,-5.54
2022-12-16T08:45:42.077Z,-5.53
2022-12-16T08:48:27.619Z,-5.42
2022-12-16T08:51:12.774Z,-5.40
2022-12-16T08:53:57.661Z,-5.36
2022-12-16T08:56:42.908Z,-5.29
2022-12-16T08:59:27.722Z,-5.20
2022-12-16T09:02:13.208Z,-5.14
2022-12-16T09:04:58.400Z,-5.06
2022-12-16T09:07:43.644Z,-5.03
2022-12-16T09:10:33.325Z,-4.92
2022-12-16T09:13:26.289Z,-4.85
2022-12-16T09:16:15.867Z,-4.80
2022-12-16T09:19:04.292Z,-4.70
2022-12-16T09:21:54.819Z,-4.61
2022-12-16T09:24:39.657Z,-4.45
2022-12-16T09:27:24.797Z,-4.25
2022-12-16T09:30:10.000Z,-4.05
2022-12-16T09:32:59.972Z,-3.87
2022-12-16T09:35:45.218Z,-3.74
2022-12-16T09:38:30.558Z,-3.60
2022-12-16T09:41:15.656Z,-3.58
2022-12-16T09:44:28.578Z,-3.50
2022-12-16T09:47:26.096Z,-3.32
2022-12-16T09:50:13.408Z,-3.28
2022-12-16T09:53:03.275Z,-3.18
2022-12-16T09:55:50.059Z,-3.24
2022-12-16T09:58:41.299Z,-3.14
2022-12-16T10:01:30.734Z,-3.13
2022-12-16T10:04:16.749Z,-3.08
2022-12-16T10:07:07.024Z,-3.04
2022-12-16T10:10:08.765Z,-2.96
2022-12-16T10:13:12.187Z,-2.84
2022-12-16T10:16:19.982Z,-2.73
2022-12-16T10:19:04.617Z,-2.75
2022-12-16T10:22:13.830Z,-2.68
2022-12-16T10:25:36.549Z,-2.66
2022-12-16T10:28:35.811Z,-2.56
2022-12-16T10:31:31.720Z,-2.56
2022-12-16T10:34:16.651Z,-2.55
2022-12-16T10:37:09.005Z,-2.48
2022-12-16T10:40:01.220Z,-2.53
2022-12-16T10:42:50.047Z,-2.62
2022-12-16T10:45:49.444Z,-2.72
2022-12-16T10:48:55.080Z,-2.78
2022-12-16T10:51:45.881Z,-2.81
2022-12-16T10:54:39.914Z,-2.82
2022-12-16T10:57:33.767Z,-2.83
2022-12-16T11:00:35.222Z,-2.82
2022-12-16T11:03:41.277Z,-2.83
2022-12-16T11:06:26.900Z,-2.74
2022-12-16T11:09:11.996Z,-2.69
2022-12-16T11:11:57.047Z,-2.67
2022-12-16T11:17:54.090Z,-2.47
2022-12-16T11:20:43.036Z,-2.47
2022-12-16T11:23:40.308Z,-2.26
2022-12-16T11:26:37.625Z,-2.23
2022-12-16T11:29:30.257Z,-2.22
2022-12-16T11:32:35.656Z,-2.13
2022-12-16T11:35:23.274Z,-2.06
2022-12-16T11:38:12.981Z,-1.86
2022-12-16T11:40:58.351Z,-1.75
2022-12-16T11:43:44.531Z,-1.75
2022-12-16T11:46:34.535Z,-1.59
2022-12-16T11:49:32.553Z,-1.51
2022-12-16T11:52:36.448Z,-1.44
2022-12-16T11:56:05.566Z,-1.41
2022-12-16T11:58:55.262Z,-1.28
2022-12-16T12:01:48.299Z,-1.21
2022-12-16T12:04:33.385Z,-1.03
2022-12-16T12:07:42.740Z,-0.95
2022-12-16T12:11:00.926Z,-0.91
2022-12-16T12:14:04.190Z,-0.80
2022-12-16T12:17:05.977Z,-0.80
2022-12-16T12:20:14.215Z,-0.76
2022-12-16T12:22:59.482Z,-0.76
2022-12-16T12:25:44.939Z,-0.70
2022-12-16T12:29:01.883Z,-0.70
2022-12-16T12:32:22.000Z,-0.61
2022-12-16T12:35:22.150Z,-0.52
2022-12-16T12:38:46.475Z,-0.39
2022-12-16T12:41:42.550Z,-0.26
2022-12-16T12:44:48.853Z,-0.19
2022-12-16T12:47:36.313Z,-0.15
2022-12-16T12:51:09.007Z,-0.07
2022-12-16T12:54:33.030Z,-0.03
2022-12-16T12:57:23.634Z,0.03
2022-12-16T13:00:36.897Z,0.04
2022-12-16T13:03:35.127Z,-0.03
2022-12-16T13:06:20.782Z,0.04
2022-12-16T13:09:08.967Z,0.06
2022-12-16T13:12:17.581Z,0.05
2022-12-16T13:15:12.652Z,0.05
2022-12-16T13:18:19.450Z,0.02
2022-12-16T13:21:07.299Z,-0.01
2022-12-16T13:23:57.944Z,0.11
2022-12-16T13:26:45.189Z,0.13
2022-12-16T13:29:43.546Z,0.21
2022-12-16T13:32:28.858Z,0.08
2022-12-16T13:35:23.047Z,0.07
2022-12-16T13:38:15.996Z,0.10
2022-12-16T13:41:08.551Z,-0.01
2022-12-16T13:44:13.500Z,0.03
2022-12-16T13:47:10.908Z,0.03
2022-12-16T13:49:56.334Z,0.04
2022-12-16T13:53:01.533Z,0.03
2022-12-16T13:55:56.517Z,-0.16
2022-12-16T13:59:00.263Z,-0.11
2022-12-16T14:01:56.692Z,-0.18
2022-12-16T14:04:47.128Z,-0.14
2022-12-16T14:07:35.578Z,-0.17
2022-12-16T14:10:21.649Z,-0.09
2022-12-16T14:13:25.899Z,-0.16
2022-12-16T14:16:33.081Z,-0.18
2022-12-16T14:19:37.999Z,-0.15
2022-12-16T14:22:41.420Z,-0.22
2022-12-16T14:25:33.652Z,-0.23
2022-12-16T14:28:19.126Z,-0.30
2022-12-16T14:31:04.942Z,-0.37
2022-12-16T14:33:50.010Z,-0.45
2022-12-16T14:36:46.813Z,-0.50
2022-12-16T14:39:40.069Z,-0.56
2022-12-16T14:42:37.533Z,-0.64
2022-12-16T14:45:24.590Z,-0.69
2022-12-16T14:48:09.592Z,-0.79
2022-12-16T14:50:54.693Z,-0.84
2022-12-16T14:53:42.460Z,-0.91
2022-12-16T14:56:41.799Z,-1.00
2022-12-16T14:59:31.895Z,-1.11
2022-12-16T15:02:26.964Z,-1.21
2022-12-16T15:05:14.815Z,-1.29
2022-12-16T15:08:02.570Z,-1.32
2022-12-16T15:10:47.942Z,-1.44
2022-12-16T15:13:36.868Z,-1.53
2022-12-16T15:16:23.723Z,-1.58
2022-12-16T15:19:18.475Z,-1.59
2022-12-16T15:22:03.666Z,-1.57
2022-12-16T15:24:54.292Z,-1.51
2022-12-16T15:27:39.445Z,-1.53
2022-12-16T15:30:57.373Z,-1.51
2022-12-16T15:33:48.027Z,-1.35
2022-12-16T15:36:48.944Z,-1.40
2022-12-16T15:39:38.953Z,-1.47
2022-12-16T15:42:35.941Z,-1.57
2022-12-16T15:45:21.341Z,-1.59
2022-12-16T15:48:09.706Z,-1.52
2022-12-16T15:50:55.613Z,-1.43
2022-12-16T15:53:50.881Z,-1.46
2022-12-16T15:57:00.236Z,-1.38
2022-12-16T15:59:49.027Z,-1.42
2022-12-16T16:02:41.516Z,-1.41
2022-12-16T16:05:32.123Z,-1.37
2022-12-16T16:08:17.546Z,-1.36
2022-12-16T16:11:05.518Z,-1.40
2022-12-16T16:13:50.581Z,-1.41
2022-12-16T16:16:35.967Z,-1.46
2022-12-16T16:19:21.942Z,-1.45
2022-12-16T16:22:09.657Z,-1.55
2022-12-16T16:24:54.731Z,-1.65
2022-12-16T16:27:42.091Z,-1.63
2022-12-16T16:30:29.842Z,-1.64
2022-12-16T16:33:14.957Z,-1.70
2022-12-16T16:35:59.998Z,-1.81
2022-12-16T16:38:45.138Z,-1.92
2022-12-16T16:41:36.952Z,-1.94
2022-12-16T16:44:24.405Z,-1.95
2022-12-16T16:47:09.454Z,-2.01
2022-12-16T16:49:59.519Z,-2.10
2022-12-16T16:52:46.237Z,-2.11
2022-12-16T16:55:40.208Z,-2.18
2022-12-16T16:58:31.380Z,-2.19
2022-12-16T17:01:16.634Z,-2.37
2022-12-16T17:04:01.787Z,-2.41
2022-12-16T17:06:47.240Z,-2.46
2022-12-16T17:09:32.364Z,-2.53
2022-12-16T17:12:17.703Z,-2.61
2022-12-16T17:15:02.570Z,-2.69
2022-12-16T17:17:47.627Z,-2.58
2022-12-16T17:20:34.401Z,-2.64
2022-12-16T17:23:20.031Z,-2.58
2022-12-16T17:26:25.622Z,-2.65
2022-12-16T17:29:10.882Z,-2.57
2022-12-16T17:31:56.128Z,-2.65
2022-12-16T17:34:41.130Z,-2.68
2022-12-16T17:37:26.350Z,-2.75
2022-12-16T17:40:13.960Z,-2.81
2022-12-16T17:42:58.939Z,-2.82
2022-12-16T17:45:43.960Z,-2.84
2022-12-16T17:48:29.455Z,-2.92
2022-12-16T17:51:14.418Z,-3.00
2022-12-16T17:54:03.072Z,-3.00
2022-12-16T17:56:50.878Z,-2.94
2022-12-16T17:59:35.884Z,-3.04
2022-12-16T18:02:20.786Z,-3.13
2022-12-16T18:05:05.824Z,-3.09
2022-12-16T18:07:55.311Z,-3.17
2022-12-16T18:10:40.219Z,-3.14
2022-12-16T18:13:25.117Z,-3.19
2022-12-16T18:16:11.286Z,-3.19
2022-12-16T18:18:58.739Z,-3.19
2022-12-16T18:21:43.898Z,-3.24
2022-12-16T18:24:30.444Z,-3.26
2022-12-16T18:27:15.521Z,-3.35
2022-12-16T18:30:19.382Z,-3.46
2022-12-16T18:33:04.657Z,-3.56
2022-12-16T18:35:49.648Z,-3.59
2022-12-16T18:38:34.619Z,-3.71
2022-12-16T18:41:24.462Z,-3.78
2022-12-16T18:44:09.806Z,-3.84
2022-12-16T18:46:54.801Z,-3.82
2022-12-16T18:49:40.156Z,-3.97
2022-12-16T18:52:25.212Z,-4.04
2022-12-16T18:55:10.480Z,-4.09
2022-12-16T18:57:55.598Z,-4.15
2022-12-16T19:00:43.164Z,-4.18
2022-12-16T19:03:28.190Z,-4.23
2022-12-16T19:06:16.764Z,-4.19
2022-12-16T19:09:01.436Z,-4.23
2022-12-16T19:11:47.171Z,-4.32
2022-12-16T19:14:32.110Z,-4.32
2022-12-16T19:17:24.154Z,-4.34
2022-12-16T19:20:09.255Z,-4.28
2022-12-16T19:22:54.904Z,-4.38
2022-12-16T19:25:41.892Z,-4.28
2022-12-16T19:28:36.665Z,-4.21
2022-12-16T19:31:21.712Z,-4.27
2022-12-16T19:34:12.462Z,-4.36
2022-12-16T19:36:58.019Z,-4.48
2022-12-16T19:39:45.471Z,-4.50
2022-12-16T19:42:31.483Z,-4.62
2022-12-16T19:45:16.868Z,-4.70
2022-12-16T19:48:02.027Z,-4.76
2022-12-16T19:50:46.849Z,-4.77
2022-12-16T19:53:31.835Z,-4.80
2022-12-16T19:56:18.792Z,-4.78
2022-12-16T19:59:04.344Z,-4.81
2022-12-16T20:01:49.912Z,-4.90
2022-12-16T20:04:34.906Z,-4.89
2022-12-16T20:07:23.145Z,-4.96
2022-12-16T20:10:23.898Z,-4.94
2022-12-16T20:13:12.443Z,-5.00
2022-12-16T20:15:59.593Z,-5.07
2022-12-16T20:18:44.475Z,-5.05
2022-12-16T20:21:53.553Z,-5.10
2022-12-16T20:24:43.965Z,-5.02
2022-12-16T20:27:29.688Z,-5.17
2022-12-16T20:30:15.301Z,-5.20
2022-12-16T20:33:01.015Z,-5.25
2022-12-16T20:35:46.461Z,-5.35
2022-12-16T20:38:31.652Z,-5.28
2022-12-16T20:41:22.178Z,-5.24
2022-12-16T20:44:08.531Z,-5.13
2022-12-16T20:46:56.294Z,-5.18
2022-12-16T20:49:42.520Z,-5.22
2022-12-16T20:52:27.667Z,-5.32
2022-12-16T20:55:12.581Z,-5.26
2022-12-16T20:57:57.759Z,-5.31
2022-12-16T21:00:42.845Z,-5.02
2022-12-16T21:03:28.532Z,-5.10
2022-12-16T21:06:13.494Z,-5.15
2022-12-16T21:09:01.258Z,-4.94
2022-12-16T21:11:47.433Z,-5.05
2022-12-16T21:14:32.946Z,-5.17
2022-12-16T21:17:17.853Z,-5.25
2022-12-16T21:20:03.127Z,-5.29
2022-12-16T21:22:48.656Z,-5.41
2022-12-16T21:25:38.948Z,-5.46
2022-12-16T21:28:26.702Z,-5.55
2022-12-16T21:31:12.032Z,-5.58
2022-12-16T21:34:16.659Z,-5.63
2022-12-16T21:37:02.383Z,-5.51
2022-12-16T21:39:47.357Z,-5.48
2022-12-16T21:42:46.382Z,-5.70
2022-12-16T21:45:31.622Z,-5.76
2022-12-16T21:48:23.220Z,-5.82
2022-12-16T21:51:11.928Z,-5.92
2022-12-16T21:54:04.803Z,-5.98
2022-12-16T21:56:52.875Z,-6.02
2022-12-16T21:59:41.774Z,-6.10
2022-12-16T22:02:32.849Z,-6.16
2022-12-16T22:05:25.893Z,-6.21
2022-12-16T22:08:10.836Z,-6.22
2022-12-16T22:10:56.076Z,-6.28
2022-12-16T22:13:43.644Z,-6.37
2022-12-16T22:16:28.985Z,-6.39
2022-12-16T22:19:14.308Z,-6.45
2022-12-16T22:22:01.583Z,-6.40
2022-12-16T22:24:46.717Z,-6.46
2022-12-16T22:27:31.647Z,-6.35
2022-12-16T22:30:16.418Z,-6.36
2022-12-16T22:33:01.261Z,-6.35
2022-12-16T22:35:46.347Z,-6.42
2022-12-16T22:38:31.297Z,-6.47
2022-12-16T22:41:18.090Z,-6.47
2022-12-16T22:44:04.572Z,-6.50
2022-12-16T22:46:49.962Z,-6.49
2022-12-16T22:49:35.286Z,-6.51
2022-12-16T22:52:22.738Z,-6.58
2022-12-16T22:55:07.875Z,-6.60
2022-12-16T23:00:57.686Z,-6.69
2022-12-16T23:03:45.604Z,-6.73
2022-12-16T23:06:30.856Z,-6.79
2022-12-16T23:12:18.833Z,-6.80
2022-12-16T23:15:03.694Z,-6.83
2022-12-16T23:17:49.305Z,-6.91
2022-12-16T23:20:34.738Z,-6.93
2022-12-16T23:23:19.592Z,-6.97
2022-12-16T23:26:18.140Z,-7.03
2022-12-16T23:29:17.364Z,-7.09
2022-12-16T23:32:02.326Z,-7.11
2022-12-16T23:32:31.406Z,-6.65
2022-12-16T23:34:49.803Z,-7.15
2022-12-16T23:37:35.189Z,-7.20
2022-12-16T23:40:20.374Z,-7.25
2022-12-16T23:43:06.446Z,-7.27
2022-12-16T23:45:51.769Z,-7.29
2022-12-16T23:48:53.391Z,-7.31
2022-12-16T23:51:39.201Z,-7.28
2022-12-16T23:54:24.015Z,-7.30
2022-12-16T23:57:09.280Z,-7.32
2022-12-16T23:59:54.591Z,-7.26
